createdAt,value
2019-01-09T00:01:01.000Z,83.20
2019-01-09T00:03:29.257Z,83.60
2019-01-09T00:05:56.927Z,83.40
2019-01-09T00:08:25.221Z,84.50
2019-01-09T00:10:52.922Z,86.20
2019-01-09T00:13:20.924Z,86.80
2019-01-09T00:15:48.536Z,86.90
2019-01-09T00:18:16.210Z,87.10
2019-01-09T00:20:43.826Z,87.90
2019-01-09T00:23:11.570Z,87.30
2019-01-09T00:25:39.096Z,87.50
2019-01-09T00:28:06.757Z,86.60
2019-01-09T00:30:34.808Z,86.20
2019-01-09T00:33:02.488Z,85.60
2019-01-09T00:35:37.328Z,86.20
2019-01-09T00:37:59.935Z,86.20
2019-01-09T00:40:27.782Z,85.60
2019-01-09T00:42:57.291Z,85.80
2019-01-09T00:45:25.200Z,85.30
2019-01-09T00:47:52.779Z,85.80
2019-01-09T00:50:22.793Z,86.00
2019-01-09T00:52:57.896Z,86.60
2019-01-09T00:55:25.431Z,86.40
2019-01-09T00:57:53.152Z,85.80
2019-01-09T01:00:20.883Z,86.40
2019-01-09T01:03:24.022Z,87.30
2019-01-09T01:06:22.933Z,87.70
2019-01-09T01:09:38.235Z,87.90
2019-01-09T01:12:30.672Z,87.70
2019-01-09T01:15:36.267Z,87.30
2019-01-09T01:18:40.191Z,87.50
2019-01-09T01:21:33.456Z,87.90
2019-01-09T01:24:31.422Z,87.50
2019-01-09T01:27:52.640Z,87.30
2019-01-09T01:30:58.926Z,87.10
2019-01-09T01:33:38.056Z,87.70
2019-01-09T01:36:33.311Z,87.30
2019-01-09T01:39:30.525Z,88.10
2019-01-09T01:42:55.288Z,88.80
2019-01-09T01:45:57.091Z,88.60
2019-01-09T01:49:24.541Z,88.10
2019-01-09T01:52:25.478Z,88.40
2019-01-09T01:55:33.362Z,89.00
2019-01-09T01:58:39.734Z,88.80
2019-01-09T02:02:04.505Z,89.70
2019-01-09T02:05:14.760Z,90.10
2019-01-09T02:08:12.802Z,90.10
2019-01-09T02:11:31.053Z,90.40
2019-01-09T02:14:27.845Z,90.70
2019-01-09T02:17:23.870Z,90.60
2019-01-09T02:20:41.902Z,90.80
2019-01-09T02:23:24.310Z,91.00
2019-01-09T02:26:40.138Z,90.60
2019-01-09T02:29:35.305Z,90.50
2019-01-09T02:32:33.298Z,90.70
2019-01-09T02:35:01.072Z,90.70
2019-01-09T02:37:28.611Z,90.40
2019-01-09T02:39:56.328Z,90.20
2019-01-09T02:42:24.016Z,89.70
2019-01-09T02:44:51.763Z,89.90
2019-01-09T02:47:19.422Z,90.10
2019-01-09T02:49:47.127Z,90.10
2019-01-09T02:52:14.897Z,90.40
2019-01-09T02:54:42.744Z,90.50
2019-01-09T02:57:10.228Z,90.20
2019-01-09T02:59:38.020Z,90.20
2019-01-09T03:02:05.658Z,90.30
2019-01-09T03:04:34.621Z,90.40
2019-01-09T03:07:02.617Z,90.70
2019-01-09T03:09:30.584Z,90.90
2019-01-09T03:11:58.484Z,91.00
2019-01-09T03:14:26.392Z,90.90
2019-01-09T03:16:54.272Z,91.20
2019-01-09T03:19:21.835Z,90.90
2019-01-09T03:21:49.294Z,91.10
2019-01-09T03:24:17.290Z,91.10
2019-01-09T03:26:45.284Z,90.90
2019-01-09T03:29:12.817Z,90.90
2019-01-09T03:31:40.470Z,91.00
2019-01-09T03:34:08.331Z,91.20
2019-01-09T03:36:35.916Z,91.10
2019-01-09T03:39:05.230Z,90.90
2019-01-09T03:41:32.897Z,90.80
2019-01-09T03:44:00.434Z,91.10
2019-01-09T03:46:28.075Z,90.90
2019-01-09T03:48:55.658Z,90.40
2019-01-09T03:51:23.240Z,90.60
2019-01-09T03:53:51.004Z,90.40
2019-01-09T03:56:18.602Z,90.50
2019-01-09T03:58:46.168Z,90.50
2019-01-09T04:01:13.726Z,90.60
2019-01-09T04:03:41.380Z,90.70
2019-01-09T04:06:09.732Z,90.60
2019-01-09T04:08:37.228Z,91.10
2019-01-09T04:11:04.873Z,90.80
2019-01-09T04:13:32.817Z,91.00
2019-01-09T04:16:00.428Z,90.80
2019-01-09T04:18:28.042Z,91.10
2019-01-09T04:20:55.626Z,91.70
2019-01-09T04:23:23.274Z,91.60
2019-01-09T04:25:51.089Z,91.70
2019-01-09T04:28:19.025Z,91.80
2019-01-09T04:30:46.727Z,91.80
2019-01-09T04:33:14.452Z,92.00
2019-01-09T04:35:42.307Z,92.10
2019-01-09T04:38:09.831Z,92.20
2019-01-09T04:40:40.082Z,91.80
2019-01-09T04:43:07.815Z,92.10
2019-01-09T04:45:35.325Z,92.20
2019-01-09T04:48:03.085Z,92.60
2019-01-09T04:50:30.662Z,92.50
2019-01-09T04:52:59.141Z,92.60
2019-01-09T04:55:26.882Z,92.60
2019-01-09T04:57:54.538Z,92.80
2019-01-09T05:00:22.287Z,92.80
2019-01-09T05:02:50.075Z,92.90
2019-01-09T05:05:17.784Z,92.60
2019-01-09T05:07:45.424Z,92.50
2019-01-09T05:10:13.078Z,92.50
2019-01-09T05:12:40.834Z,92.40
2019-01-09T05:15:08.749Z,92.20
2019-01-09T05:17:36.597Z,92.00
2019-01-09T05:20:04.581Z,91.90
2019-01-09T05:22:32.120Z,91.90
2019-01-09T05:24:59.991Z,91.90
2019-01-09T05:27:27.627Z,91.80
2019-01-09T05:29:55.207Z,91.80
2019-01-09T05:32:22.965Z,91.90
2019-01-09T05:34:51.969Z,91.90
2019-01-09T05:37:19.565Z,92.00
2019-01-09T05:39:48.270Z,91.90
2019-01-09T05:42:17.039Z,92.00
2019-01-09T05:44:44.741Z,91.90
2019-01-09T05:47:12.396Z,92.30
2019-01-09T05:49:40.199Z,92.00
2019-01-09T05:52:09.130Z,92.10
2019-01-09T05:54:36.833Z,92.30
2019-01-09T05:57:04.491Z,92.10
2019-01-09T05:59:32.050Z,92.00
2019-01-09T06:01:59.511Z,92.00
2019-01-09T06:04:27.184Z,92.00
2019-01-09T06:06:54.793Z,92.10
2019-01-09T06:09:22.387Z,92.10
2019-01-09T06:11:49.875Z,92.00
2019-01-09T06:14:17.451Z,91.60
2019-01-09T06:16:45.283Z,91.80
2019-01-09T06:19:12.822Z,92.00
2019-01-09T06:21:40.462Z,91.80
2019-01-09T06:24:08.107Z,91.80
2019-01-09T06:26:36.671Z,91.60
2019-01-09T06:29:04.352Z,91.40
2019-01-09T06:31:31.847Z,90.90
2019-01-09T06:33:59.297Z,91.10
2019-01-09T06:36:26.878Z,91.00
2019-01-09T06:38:54.318Z,90.90
2019-01-09T06:41:21.840Z,90.80
2019-01-09T06:43:49.300Z,90.60
2019-01-09T06:46:16.828Z,90.60
2019-01-09T06:48:46.469Z,90.40
2019-01-09T06:51:14.091Z,90.10
2019-01-09T06:53:41.568Z,89.90
2019-01-09T06:56:09.327Z,89.60
2019-01-09T06:58:36.982Z,89.40
2019-01-09T07:01:04.606Z,89.60
2019-01-09T07:03:32.346Z,89.60
2019-01-09T07:06:00.079Z,89.70
2019-01-09T07:08:28.431Z,89.90
2019-01-09T07:10:56.117Z,89.70
2019-01-09T07:13:23.814Z,89.40
2019-01-09T07:15:51.654Z,89.00
2019-01-09T07:18:19.297Z,89.20
2019-01-09T07:20:47.461Z,89.90
2019-01-09T07:23:28.367Z,90.10
2019-01-09T07:25:56.869Z,90.10
2019-01-09T07:28:25.430Z,90.20
2019-01-09T07:30:53.795Z,90.10
2019-01-09T07:33:22.197Z,90.10
2019-01-09T07:35:51.032Z,90.30
2019-01-09T07:38:19.479Z,90.10
2019-01-09T07:40:47.821Z,89.90
2019-01-09T07:43:17.172Z,90.30
2019-01-09T07:45:45.233Z,89.70
2019-01-09T07:48:13.571Z,90.10
2019-01-09T07:50:41.818Z,90.30
2019-01-09T07:53:09.961Z,90.10
2019-01-09T07:55:38.201Z,89.40
2019-01-09T07:58:06.619Z,89.40
2019-01-09T08:00:34.956Z,89.40
2019-01-09T08:03:03.285Z,89.60
2019-01-09T08:05:31.429Z,89.20
2019-01-09T08:07:59.635Z,88.80
2019-01-09T08:10:27.711Z,88.20
2019-01-09T08:12:56.108Z,88.20
2019-01-09T08:15:24.162Z,88.10
2019-01-09T08:17:52.640Z,87.50
2019-01-09T08:20:21.075Z,87.90
2019-01-09T08:22:49.195Z,87.70
2019-01-09T08:25:17.470Z,88.10
2019-01-09T08:27:45.730Z,89.00
2019-01-09T08:30:14.063Z,89.40
2019-01-09T08:32:42.407Z,89.00
2019-01-09T08:35:10.706Z,88.20
2019-01-09T08:37:39.275Z,89.40
2019-01-09T08:40:08.594Z,89.20
2019-01-09T08:42:36.875Z,89.90
2019-01-09T08:45:06.491Z,90.10
2019-01-09T08:47:34.654Z,88.60
2019-01-09T08:50:04.139Z,89.70
2019-01-09T08:52:32.704Z,89.60
2019-01-09T08:55:00.703Z,89.40
2019-01-09T08:57:28.780Z,89.40
2019-01-09T08:59:57.934Z,89.90
2019-01-09T09:02:26.094Z,90.40
2019-01-09T09:04:54.389Z,90.50
2019-01-09T09:07:24.495Z,90.20
2019-01-09T09:09:52.616Z,90.40
2019-01-09T09:12:20.993Z,91.10
2019-01-09T09:14:49.085Z,91.10
2019-01-09T09:17:17.162Z,90.50
2019-01-09T09:19:45.236Z,90.50
2019-01-09T09:22:13.770Z,90.90
2019-01-09T09:24:41.902Z,90.80
2019-01-09T09:27:10.104Z,90.60
2019-01-09T09:29:38.014Z,88.40
2019-01-09T09:32:06.163Z,88.40
2019-01-09T09:34:34.427Z,87.90
2019-01-09T09:37:02.543Z,85.80
2019-01-09T09:39:30.614Z,85.60
2019-01-09T09:41:58.883Z,86.80
2019-01-09T09:44:27.137Z,86.20
2019-01-09T09:46:55.184Z,86.20
2019-01-09T09:49:23.403Z,85.30
2019-01-09T09:51:51.343Z,83.60
2019-01-09T09:54:19.361Z,83.60
2019-01-09T09:56:47.493Z,83.80
2019-01-09T09:59:15.600Z,82.10
2019-01-09T10:01:44.841Z,82.30
2019-01-09T10:04:12.997Z,82.80
2019-01-09T10:06:40.912Z,83.00
2019-01-09T10:09:10.134Z,82.70
2019-01-09T10:11:38.203Z,82.10
2019-01-09T10:14:06.380Z,82.10
2019-01-09T10:16:36.753Z,82.50
2019-01-09T10:19:05.029Z,83.60
2019-01-09T10:21:33.036Z,81.40
2019-01-09T10:24:01.122Z,81.00
2019-01-09T10:26:29.336Z,79.70
2019-01-09T10:28:57.560Z,79.10
2019-01-09T10:31:25.878Z,78.00
2019-01-09T10:33:54.234Z,78.00
2019-01-09T10:36:22.190Z,78.00
2019-01-09T10:38:50.622Z,78.00
2019-01-09T10:41:18.821Z,78.20
2019-01-09T10:43:46.908Z,78.40
2019-01-09T10:46:15.416Z,77.60
2019-01-09T10:48:43.633Z,78.20
2019-01-09T10:51:11.518Z,77.80
2019-01-09T10:53:39.569Z,76.30
2019-01-09T10:56:07.851Z,78.00
2019-01-09T10:58:36.717Z,76.50
2019-01-09T11:01:05.106Z,77.30
2019-01-09T11:03:33.705Z,76.90
2019-01-09T11:06:01.936Z,78.60
2019-01-09T11:08:30.847Z,79.30
2019-01-09T11:10:58.968Z,79.70
2019-01-09T11:13:27.018Z,79.90
2019-01-09T11:15:55.130Z,80.80
2019-01-09T11:18:23.295Z,82.70
2019-01-09T11:20:51.346Z,83.00
2019-01-09T11:23:22.096Z,83.60
2019-01-09T11:25:50.443Z,83.40
2019-01-09T11:28:19.153Z,83.40
2019-01-09T11:30:47.274Z,83.20
2019-01-09T11:33:15.486Z,83.00
2019-01-09T11:35:43.627Z,82.70
2019-01-09T11:38:12.363Z,82.30
2019-01-09T11:40:40.494Z,81.70
2019-01-09T11:43:09.050Z,82.70
2019-01-09T11:45:37.237Z,83.00
2019-01-09T11:48:05.519Z,83.40
2019-01-09T11:50:33.505Z,83.60
2019-01-09T11:53:02.055Z,81.70
2019-01-09T11:55:30.668Z,81.90
2019-01-09T11:57:58.679Z,81.70
2019-01-09T12:00:29.121Z,83.20
2019-01-09T12:02:57.335Z,84.70
2019-01-09T12:05:25.616Z,86.40
2019-01-09T12:07:53.633Z,88.20
2019-01-09T12:10:29.791Z,88.80
2019-01-09T12:12:52.900Z,89.40
2019-01-09T12:15:24.581Z,89.90
2019-01-09T12:17:52.638Z,89.90
2019-01-09T12:20:21.033Z,89.90
2019-01-09T12:22:49.496Z,88.40
2019-01-09T12:25:18.087Z,86.80
2019-01-09T12:27:46.569Z,83.80
2019-01-09T12:30:20.644Z,80.80
2019-01-09T12:32:48.788Z,78.60
2019-01-09T12:35:16.913Z,75.00
2019-01-09T12:37:44.991Z,74.10
2019-01-09T12:40:13.562Z,72.60
2019-01-09T12:42:41.897Z,70.50
2019-01-09T12:45:11.307Z,69.80
2019-01-09T12:47:39.522Z,66.60
2019-01-09T12:50:14.139Z,66.10
2019-01-09T12:52:41.936Z,62.50
2019-01-09T12:55:10.310Z,63.70
2019-01-09T12:57:38.826Z,63.70
2019-01-09T13:00:19.767Z,62.50
2019-01-09T13:02:50.824Z,62.90
2019-01-09T13:05:19.166Z,64.80
2019-01-09T13:07:47.370Z,64.20
2019-01-09T13:10:15.617Z,65.00
2019-01-09T13:12:43.777Z,65.90
2019-01-09T13:15:11.965Z,66.80
2019-01-09T13:17:40.088Z,66.40
2019-01-09T13:20:09.746Z,67.20
2019-01-09T13:22:38.026Z,69.10
2019-01-09T13:25:06.739Z,62.90
2019-01-09T13:27:35.116Z,63.10
2019-01-09T13:30:04.969Z,66.30
2019-01-09T13:32:33.506Z,65.30
2019-01-09T13:35:01.823Z,65.50
2019-01-09T13:37:30.913Z,66.40
2019-01-09T13:39:59.007Z,67.20
2019-01-09T13:42:27.190Z,70.40
2019-01-09T13:44:56.605Z,70.70
2019-01-09T13:47:24.697Z,72.60
2019-01-09T13:49:52.950Z,75.40
2019-01-09T13:52:21.232Z,77.30
2019-01-09T13:54:49.614Z,78.70
2019-01-09T13:57:17.909Z,79.50
2019-01-09T13:59:46.200Z,80.80
2019-01-09T14:02:14.279Z,81.00
2019-01-09T14:04:42.653Z,81.70
2019-01-09T14:07:10.740Z,81.50
2019-01-09T14:09:39.853Z,82.10
2019-01-09T14:12:08.132Z,82.10
2019-01-09T14:14:36.415Z,81.00
2019-01-09T14:17:04.772Z,81.90
2019-01-09T14:19:33.298Z,81.50
2019-01-09T14:22:01.548Z,80.60
2019-01-09T14:24:29.720Z,79.70
2019-01-09T14:26:58.128Z,77.40
2019-01-09T14:29:26.368Z,78.70
2019-01-09T14:31:54.647Z,80.20
2019-01-09T14:34:22.890Z,78.70
2019-01-09T14:36:51.046Z,80.40
2019-01-09T14:39:19.537Z,81.90
2019-01-09T14:41:47.991Z,81.20
2019-01-09T14:44:16.330Z,79.30
2019-01-09T14:46:44.655Z,79.30
2019-01-09T14:49:12.886Z,79.50
2019-01-09T14:51:43.322Z,77.80
2019-01-09T14:54:11.261Z,79.30
2019-01-09T14:56:39.530Z,78.00
2019-01-09T14:59:07.878Z,76.10
2019-01-09T15:01:36.128Z,74.60
2019-01-09T15:04:04.498Z,73.20
2019-01-09T15:06:32.633Z,75.00
2019-01-09T15:09:00.863Z,76.10
2019-01-09T15:11:29.880Z,75.80
2019-01-09T15:13:58.250Z,77.60
2019-01-09T15:16:26.086Z,79.10
2019-01-09T15:18:54.222Z,80.40
2019-01-09T15:21:22.599Z,81.90
2019-01-09T15:23:50.557Z,83.00
2019-01-09T15:26:18.881Z,84.10
2019-01-09T15:28:46.994Z,84.00
2019-01-09T15:31:15.255Z,84.10
2019-01-09T15:33:44.568Z,84.70
2019-01-09T15:36:13.139Z,84.50
2019-01-09T15:38:41.145Z,83.60
2019-01-09T15:41:09.101Z,84.00
2019-01-09T15:43:37.457Z,84.00
2019-01-09T15:46:05.884Z,83.40
2019-01-09T15:48:34.349Z,83.80
2019-01-09T15:51:02.509Z,83.40
2019-01-09T15:53:30.884Z,82.10
2019-01-09T15:55:59.086Z,81.20
2019-01-09T15:58:27.451Z,81.40
2019-01-09T16:00:58.784Z,82.50
2019-01-09T16:03:27.165Z,81.40
2019-01-09T16:05:55.049Z,79.70
2019-01-09T16:08:23.129Z,79.50
2019-01-09T16:10:51.000Z,80.20
2019-01-09T16:13:19.153Z,80.40
2019-01-09T16:15:47.326Z,80.00
2019-01-09T16:18:15.699Z,81.90
2019-01-09T16:20:43.874Z,82.50
2019-01-09T16:23:11.880Z,82.80
2019-01-09T16:25:40.170Z,83.00
2019-01-09T16:28:08.653Z,84.30
2019-01-09T16:31:10.374Z,84.50
2019-01-09T16:33:52.617Z,85.30
2019-01-09T16:36:21.050Z,86.90
2019-01-09T16:38:48.932Z,87.70
2019-01-09T16:41:17.148Z,87.10
2019-01-09T16:43:47.087Z,87.50
2019-01-09T16:46:15.838Z,87.90
2019-01-09T16:48:45.212Z,88.10
2019-01-09T16:51:13.485Z,87.50
2019-01-09T16:53:41.665Z,88.20
2019-01-09T16:56:09.963Z,90.80
2019-01-09T16:58:38.410Z,90.40
2019-01-09T17:01:06.988Z,89.00
2019-01-09T17:03:35.384Z,88.80
2019-01-09T17:06:15.030Z,88.80
2019-01-09T17:08:43.299Z,88.60
2019-01-09T17:11:11.698Z,88.40
2019-01-09T17:13:39.865Z,87.50
2019-01-09T17:16:08.226Z,87.90
2019-01-09T17:18:36.610Z,87.50
2019-01-09T17:21:05.068Z,87.70
2019-01-09T17:23:33.470Z,87.70
2019-01-09T17:26:01.764Z,88.10
2019-01-09T17:28:29.918Z,88.40
2019-01-09T17:30:58.459Z,88.80
2019-01-09T17:33:26.689Z,88.80
2019-01-09T17:36:01.863Z,89.00
2019-01-09T17:38:30.463Z,89.40
2019-01-09T17:40:58.634Z,89.60
2019-01-09T17:43:26.892Z,88.60
2019-01-09T17:45:55.068Z,89.00
2019-01-09T17:48:23.256Z,89.00
2019-01-09T17:50:51.377Z,89.00
2019-01-09T17:53:19.730Z,89.40
2019-01-09T17:55:48.163Z,89.20
2019-01-09T17:58:16.518Z,88.80
2019-01-09T18:00:45.422Z,88.60
2019-01-09T18:03:14.063Z,89.20
2019-01-09T18:05:42.229Z,88.40
2019-01-09T18:08:12.146Z,88.10
2019-01-09T18:10:49.672Z,88.80
2019-01-09T18:13:10.634Z,88.40
2019-01-09T18:15:38.910Z,91.90
2019-01-09T18:18:07.139Z,90.10
2019-01-09T18:20:35.373Z,89.00
2019-01-09T18:23:30.272Z,89.00
2019-01-09T18:25:58.703Z,88.60
2019-01-09T18:28:27.214Z,88.60
2019-01-09T18:31:14.043Z,88.80
2019-01-09T18:33:52.795Z,89.40
2019-01-09T18:36:55.315Z,89.20
2019-01-09T18:40:05.406Z,89.20
2019-01-09T18:43:11.492Z,89.40
2019-01-09T18:46:36.570Z,89.90
2019-01-09T18:49:57.030Z,89.70
2019-01-09T18:52:50.903Z,89.70
2019-01-09T18:55:19.046Z,89.90
2019-01-09T18:57:47.412Z,90.20
2019-01-09T19:00:19.198Z,90.20
2019-01-09T19:02:47.754Z,90.30
2019-01-09T19:05:16.691Z,90.20
2019-01-09T19:07:45.167Z,90.20
2019-01-09T19:10:16.779Z,90.10
2019-01-09T19:12:45.648Z,90.10
2019-01-09T19:15:14.837Z,90.20
2019-01-09T19:17:43.398Z,90.40
2019-01-09T19:20:12.007Z,90.40
2019-01-09T19:22:40.495Z,90.20
2019-01-09T19:25:09.459Z,90.10
2019-01-09T19:27:37.791Z,90.20
2019-01-09T19:30:11.253Z,90.50
2019-01-09T19:32:39.437Z,90.20
2019-01-09T19:35:07.901Z,90.10
2019-01-09T19:37:36.626Z,90.20
2019-01-09T19:40:05.410Z,90.30
2019-01-09T19:42:33.740Z,90.30
2019-01-09T19:45:02.247Z,90.10
2019-01-09T19:47:30.815Z,90.10
2019-01-09T19:49:59.186Z,90.10
2019-01-09T19:52:27.623Z,90.20
2019-01-09T19:54:56.690Z,90.10
2019-01-09T19:57:24.954Z,90.20
2019-01-09T19:59:53.562Z,90.10
2019-01-09T20:02:21.814Z,90.20
2019-01-09T20:04:50.135Z,90.30
2019-01-09T20:07:18.398Z,90.30
2019-01-09T20:09:46.763Z,90.10
2019-01-09T20:12:15.127Z,89.90
2019-01-09T20:14:43.289Z,90.20
2019-01-09T20:17:11.657Z,90.20
2019-01-09T20:19:39.853Z,90.30
2019-01-09T20:22:08.158Z,90.20
2019-01-09T20:24:36.730Z,90.10
2019-01-09T20:27:05.119Z,90.20
2019-01-09T20:29:33.493Z,90.10
2019-01-09T20:32:01.805Z,90.10
2019-01-09T20:34:30.076Z,90.20
2019-01-09T20:36:58.552Z,90.30
2019-01-09T20:39:27.328Z,90.20
2019-01-09T20:41:55.480Z,90.20
2019-01-09T20:44:23.616Z,90.10
2019-01-09T20:46:59.605Z,89.90
2019-01-09T20:49:27.919Z,90.20
2019-01-09T20:51:56.103Z,89.90
2019-01-09T20:54:24.267Z,90.20
2019-01-09T20:56:52.809Z,90.20
2019-01-09T20:59:20.948Z,90.30
2019-01-09T21:01:49.259Z,90.20
2019-01-09T21:04:18.377Z,89.90
2019-01-09T21:06:46.828Z,89.70
2019-01-09T21:09:14.929Z,89.40
2019-01-09T21:11:44.521Z,88.80
2019-01-09T21:14:12.982Z,88.60
2019-01-09T21:16:41.136Z,88.60
2019-01-09T21:19:10.022Z,90.20
2019-01-09T21:21:38.721Z,89.00
2019-01-09T21:24:07.033Z,88.80
2019-01-09T21:26:35.498Z,87.90
2019-01-09T21:29:05.267Z,87.30
2019-01-09T21:31:34.089Z,87.50
2019-01-09T21:34:02.718Z,86.80
2019-01-09T21:36:30.954Z,87.50
2019-01-09T21:38:59.294Z,87.70
2019-01-09T21:41:27.604Z,87.30
2019-01-09T21:43:56.339Z,86.60
2019-01-09T21:46:24.912Z,86.00
2019-01-09T21:48:53.015Z,86.20
2019-01-09T21:51:23.006Z,86.20
2019-01-09T21:53:51.778Z,86.40
2019-01-09T21:56:22.135Z,86.20
2019-01-09T21:58:51.600Z,86.40
2019-01-09T22:01:22.593Z,86.00
2019-01-09T22:03:51.657Z,86.00
2019-01-09T22:06:19.997Z,86.20
2019-01-09T22:08:48.688Z,86.80
2019-01-09T22:11:17.047Z,86.80
2019-01-09T22:13:47.096Z,86.40
2019-01-09T22:16:15.424Z,86.90
2019-01-09T22:18:43.436Z,86.40
2019-01-09T22:21:11.686Z,86.40
2019-01-09T22:23:39.921Z,86.20
2019-01-09T22:26:08.177Z,86.00
2019-01-09T22:28:36.298Z,86.90
2019-01-09T22:31:04.780Z,86.90
2019-01-09T22:33:32.962Z,87.50
2019-01-09T22:36:01.155Z,87.50
2019-01-09T22:38:29.431Z,87.90
2019-01-09T22:40:57.881Z,88.20
2019-01-09T22:43:26.466Z,88.10
2019-01-09T22:45:54.665Z,88.40
2019-01-09T22:48:22.962Z,87.70
2019-01-09T22:50:51.040Z,87.90
2019-01-09T22:53:18.978Z,88.60
2019-01-09T22:55:47.219Z,88.40
2019-01-09T22:58:15.209Z,88.40
2019-01-09T23:00:59.655Z,88.80
2019-01-09T23:03:27.864Z,89.00
2019-01-09T23:05:56.042Z,89.20
2019-01-09T23:08:24.063Z,89.60
2019-01-09T23:10:55.020Z,89.40
2019-01-09T23:13:22.190Z,89.20
2019-01-09T23:15:50.513Z,89.20
2019-01-09T23:18:18.938Z,89.60
2019-01-09T23:20:47.210Z,89.70
2019-01-09T23:23:15.906Z,89.70
2019-01-09T23:25:43.982Z,89.90
2019-01-09T23:28:13.283Z,89.90
2019-01-09T23:30:41.567Z,89.70
2019-01-09T23:33:10.237Z,89.90
2019-01-09T23:35:38.411Z,90.10
2019-01-09T23:38:06.449Z,89.90
2019-01-09T23:40:35.592Z,90.10
2019-01-09T23:43:03.979Z,90.10
2019-01-09T23:45:32.239Z,89.70
2019-01-09T23:48:00.215Z,89.90
2019-01-09T23:50:28.854Z,90.10
2019-01-09T23:52:57.192Z,90.20
2019-01-09T23:55:26.464Z,90.10
2019-01-09T23:57:54.973Z,90.10
